sensor_id;sensor_type;location;lat;lon;timestamp;P1;durP1;ratioP1;P2;durP2;ratioP2
78410;SDS011;67706;51.074;-1.796;2023-09-19T00:01:20;9.60;;;1.30;;
78410;SDS011;67706;51.074;-1.796;2023-09-19T00:03:48;7.95;;;1.40;;
78410;SDS011;67706;51.074;-1.796;2023-09-19T00:06:15;8.23;;;1.50;;
78410;SDS011;67706;51.074;-1.796;2023-09-19T00:08:41;6.57;;;1.10;;
78410;SDS011;67706;51.074;-1.796;2023-09-19T00:11:09;5.65;;;1.70;;
78410;SDS011;67706;51.074;-1.796;2023-09-19T00:13:36;13.23;;;1.65;;
78410;SDS011;67706;51.074;-1.796;2023-09-19T00:16:07;8.80;;;1.50;;
78410;SDS011;67706;51.074;-1.796;2023-09-19T00:18:36;10.43;;;1.20;;
78410;SDS011;67706;51.074;-1.796;2023-09-19T00:21:04;6.45;;;1.30;;
78410;SDS011;67706;51.074;-1.796;2023-09-19T00:23:32;9.82;;;1.70;;
78410;SDS011;67706;51.074;-1.796;2023-09-19T00:25:58;8.82;;;1.48;;
78410;SDS011;67706;51.074;-1.796;2023-09-19T00:28:25;7.28;;;1.30;;
78410;SDS011;67706;51.074;-1.796;2023-09-19T00:30:52;10.75;;;2.05;;
78410;SDS011;67706;51.074;-1.796;2023-09-19T00:33:26;5.38;;;1.30;;
78410;SDS011;67706;51.074;-1.796;2023-09-19T00:35:54;8.02;;;1.58;;
78410;SDS011;67706;51.074;-1.796;2023-09-19T00:38:24;6.60;;;1.55;;
78410;SDS011;67706;51.074;-1.796;2023-09-19T00:40:53;4.93;;;1.50;;
78410;SDS011;67706;51.074;-1.796;2023-09-19T00:43:21;7.25;;;1.20;;
78410;SDS011;67706;51.074;-1.796;2023-09-19T00:45:50;7.45;;;1.75;;
78410;SDS011;67706;51.074;-1.796;2023-09-19T00:48:18;8.07;;;1.70;;
78410;SDS011;67706;51.074;-1.796;2023-09-19T00:50:46;4.45;;;1.83;;
78410;SDS011;67706;51.074;-1.796;2023-09-19T00:53:15;6.57;;;1.30;;
78410;SDS011;67706;51.074;-1.796;2023-09-19T00:55:46;11.20;;;1.33;;
78410;SDS011;67706;51.074;-1.796;2023-09-19T00:58:14;4.78;;;1.33;;
78410;SDS011;67706;51.074;-1.796;2023-09-19T01:00:42;4.35;;;1.00;;
78410;SDS011;67706;51.074;-1.796;2023-09-19T01:03:10;6.43;;;1.25;;
78410;SDS011;67706;51.074;-1.796;2023-09-19T01:05:38;6.97;;;1.13;;
78410;SDS011;67706;51.074;-1.796;2023-09-19T01:08:05;6.97;;;1.40;;
78410;SDS011;67706;51.074;-1.796;2023-09-19T01:10:33;5.78;;;0.95;;
78410;SDS011;67706;51.074;-1.796;2023-09-19T01:13:03;4.55;;;0.88;;
78410;SDS011;67706;51.074;-1.796;2023-09-19T01:15:44;7.57;;;1.02;;
78410;SDS011;67706;51.074;-1.796;2023-09-19T01:18:20;6.43;;;1.00;;
78410;SDS011;67706;51.074;-1.796;2023-09-19T01:20:55;7.32;;;1.13;;
78410;SDS011;67706;51.074;-1.796;2023-09-19T01:23:31;6.00;;;1.00;;
78410;SDS011;67706;51.074;-1.796;2023-09-19T01:26:24;4.93;;;1.00;;
78410;SDS011;67706;51.074;-1.796;2023-09-19T01:29:13;5.10;;;1.20;;
78410;SDS011;67706;51.074;-1.796;2023-09-19T01:32:03;6.57;;;0.85;;
78410;SDS011;67706;51.074;-1.796;2023-09-19T01:34:43;6.55;;;0.90;;
78410;SDS011;67706;51.074;-1.796;2023-09-19T01:37:12;6.88;;;0.98;;
78410;SDS011;67706;51.074;-1.796;2023-09-19T01:39:39;5.55;;;1.00;;
78410;SDS011;67706;51.074;-1.796;2023-09-19T01:42:08;5.68;;;0.82;;
78410;SDS011;67706;51.074;-1.796;2023-09-19T01:44:49;4.05;;;0.82;;
78410;SDS011;67706;51.074;-1.796;2023-09-19T01:47:26;10.93;;;1.52;;
78410;SDS011;67706;51.074;-1.796;2023-09-19T01:50:00;4.47;;;0.90;;
78410;SDS011;67706;51.074;-1.796;2023-09-19T01:52:33;4.88;;;0.90;;
78410;SDS011;67706;51.074;-1.796;2023-09-19T01:55:08;9.02;;;1.08;;
78410;SDS011;67706;51.074;-1.796;2023-09-19T01:57:39;8.18;;;1.35;;
78410;SDS011;67706;51.074;-1.796;2023-09-19T02:00:10;4.10;;;0.70;;
78410;SDS011;67706;51.074;-1.796;2023-09-19T02:02:42;5.13;;;0.88;;
78410;SDS011;67706;51.074;-1.796;2023-09-19T02:05:11;7.65;;;1.30;;
78410;SDS011;67706;51.074;-1.796;2023-09-19T02:07:38;8.10;;;1.27;;
78410;SDS011;67706;51.074;-1.796;2023-09-19T02:10:05;5.97;;;1.15;;
78410;SDS011;67706;51.074;-1.796;2023-09-19T02:12:35;7.03;;;0.98;;
78410;SDS011;67706;51.074;-1.796;2023-09-19T02:15:01;7.32;;;1.30;;
78410;SDS011;67706;51.074;-1.796;2023-09-19T02:17:28;6.47;;;1.35;;
78410;SDS011;67706;51.074;-1.796;2023-09-19T02:19:57;4.63;;;0.98;;
78410;SDS011;67706;51.074;-1.796;2023-09-19T02:22:26;6.00;;;0.90;;
78410;SDS011;67706;51.074;-1.796;2023-09-19T02:24:53;7.78;;;1.20;;
78410;SDS011;67706;51.074;-1.796;2023-09-19T02:27:19;5.35;;;1.05;;
78410;SDS011;67706;51.074;-1.796;2023-09-19T02:29:46;6.82;;;1.10;;
78410;SDS011;67706;51.074;-1.796;2023-09-19T02:32:14;6.43;;;1.23;;
78410;SDS011;67706;51.074;-1.796;2023-09-19T02:34:43;12.95;;;1.27;;
78410;SDS011;67706;51.074;-1.796;2023-09-19T02:37:12;10.13;;;1.30;;
78410;SDS011;67706;51.074;-1.796;2023-09-19T02:39:41;5.65;;;0.98;;
78410;SDS011;67706;51.074;-1.796;2023-09-19T02:42:08;6.00;;;1.15;;
78410;SDS011;67706;51.074;-1.796;2023-09-19T02:44:35;6.47;;;1.00;;
78410;SDS011;67706;51.074;-1.796;2023-09-19T02:47:03;5.88;;;0.90;;
78410;SDS011;67706;51.074;-1.796;2023-09-19T02:49:30;4.50;;;0.80;;
78410;SDS011;67706;51.074;-1.796;2023-09-19T02:51:57;6.65;;;1.25;;
78410;SDS011;67706;51.074;-1.796;2023-09-19T02:54:26;8.23;;;1.42;;
78410;SDS011;67706;51.074;-1.796;2023-09-19T02:56:53;3.80;;;1.00;;
78410;SDS011;67706;51.074;-1.796;2023-09-19T02:59:20;3.75;;;0.90;;
78410;SDS011;67706;51.074;-1.796;2023-09-19T03:01:47;4.72;;;0.90;;
78410;SDS011;67706;51.074;-1.796;2023-09-19T03:04:14;7.45;;;0.90;;
78410;SDS011;67706;51.074;-1.796;2023-09-19T03:06:43;8.32;;;0.98;;
78410;SDS011;67706;51.074;-1.796;2023-09-19T03:09:10;4.72;;;0.73;;
78410;SDS011;67706;51.074;-1.796;2023-09-19T03:11:40;6.72;;;0.90;;
78410;SDS011;67706;51.074;-1.796;2023-09-19T03:14:11;8.35;;;1.15;;
78410;SDS011;67706;51.074;-1.796;2023-09-19T03:16:40;5.93;;;1.00;;
78410;SDS011;67706;51.074;-1.796;2023-09-19T03:19:07;8.77;;;0.93;;
78410;SDS011;67706;51.074;-1.796;2023-09-19T03:21:35;9.02;;;1.25;;
78410;SDS011;67706;51.074;-1.796;2023-09-19T03:24:02;3.85;;;0.77;;
78410;SDS011;67706;51.074;-1.796;2023-09-19T03:26:30;5.70;;;0.90;;
78410;SDS011;67706;51.074;-1.796;2023-09-19T03:28:59;8.02;;;0.90;;
78410;SDS011;67706;51.074;-1.796;2023-09-19T03:31:31;2.80;;;0.93;;
78410;SDS011;67706;51.074;-1.796;2023-09-19T03:33:58;9.85;;;0.95;;
78410;SDS011;67706;51.074;-1.796;2023-09-19T03:36:25;8.32;;;1.08;;
78410;SDS011;67706;51.074;-1.796;2023-09-19T03:38:53;8.38;;;0.75;;
78410;SDS011;67706;51.074;-1.796;2023-09-19T03:41:20;7.30;;;1.05;;
78410;SDS011;67706;51.074;-1.796;2023-09-19T03:43:46;4.22;;;0.98;;
78410;SDS011;67706;51.074;-1.796;2023-09-19T03:46:15;6.63;;;0.88;;
78410;SDS011;67706;51.074;-1.796;2023-09-19T03:48:41;5.43;;;0.85;;
78410;SDS011;67706;51.074;-1.796;2023-09-19T03:51:08;6.00;;;1.33;;
78410;SDS011;67706;51.074;-1.796;2023-09-19T03:53:35;6.70;;;0.82;;
78410;SDS011;67706;51.074;-1.796;2023-09-19T03:56:02;6.65;;;0.90;;
78410;SDS011;67706;51.074;-1.796;2023-09-19T03:58:29;7.28;;;1.27;;
78410;SDS011;67706;51.074;-1.796;2023-09-19T04:00:55;5.90;;;1.25;;
78410;SDS011;67706;51.074;-1.796;2023-09-19T04:03:24;3.78;;;0.88;;
78410;SDS011;67706;51.074;-1.796;2023-09-19T04:05:59;12.45;;;1.50;;
78410;SDS011;67706;51.074;-1.796;2023-09-19T04:08:26;6.40;;;1.33;;
78410;SDS011;67706;51.074;-1.796;2023-09-19T04:10:53;9.93;;;1.23;;
78410;SDS011;67706;51.074;-1.796;2023-09-19T04:13:20;6.63;;;0.80;;
78410;SDS011;67706;51.074;-1.796;2023-09-19T04:15:47;7.80;;;0.90;;
78410;SDS011;67706;51.074;-1.796;2023-09-19T04:18:14;7.80;;;0.80;;
78410;SDS011;67706;51.074;-1.796;2023-09-19T04:20:42;3.28;;;0.60;;
78410;SDS011;67706;51.074;-1.796;2023-09-19T04:23:14;2.50;;;0.50;;
78410;SDS011;67706;51.074;-1.796;2023-09-19T04:25:41;5.55;;;0.80;;
78410;SDS011;67706;51.074;-1.796;2023-09-19T04:28:07;5.88;;;0.65;;
78410;SDS011;67706;51.074;-1.796;2023-09-19T04:30:35;3.17;;;0.70;;
78410;SDS011;67706;51.074;-1.796;2023-09-19T04:33:02;6.65;;;0.73;;
78410;SDS011;67706;51.074;-1.796;2023-09-19T04:35:30;4.15;;;0.75;;
78410;SDS011;67706;51.074;-1.796;2023-09-19T04:38:01;3.78;;;0.60;;
78410;SDS011;67706;51.074;-1.796;2023-09-19T04:40:28;3.78;;;0.57;;
78410;SDS011;67706;51.074;-1.796;2023-09-19T04:42:55;3.38;;;0.50;;
78410;SDS011;67706;51.074;-1.796;2023-09-19T04:45:22;3.97;;;0.63;;
78410;SDS011;67706;51.074;-1.796;2023-09-19T04:47:49;7.18;;;0.70;;
78410;SDS011;67706;51.074;-1.796;2023-09-19T04:50:16;7.40;;;0.90;;
78410;SDS011;67706;51.074;-1.796;2023-09-19T04:52:43;5.22;;;0.80;;
78410;SDS011;67706;51.074;-1.796;2023-09-19T04:55:17;2.80;;;0.65;;
78410;SDS011;67706;51.074;-1.796;2023-09-19T04:57:44;4.00;;;0.50;;
78410;SDS011;67706;51.074;-1.796;2023-09-19T05:00:12;2.85;;;0.60;;
78410;SDS011;67706;51.074;-1.796;2023-09-19T05:02:41;4.55;;;1.00;;
78410;SDS011;67706;51.074;-1.796;2023-09-19T05:05:08;5.93;;;0.80;;
78410;SDS011;67706;51.074;-1.796;2023-09-19T05:07:36;4.20;;;0.82;;
78410;SDS011;67706;51.074;-1.796;2023-09-19T05:10:03;3.22;;;0.60;;
78410;SDS011;67706;51.074;-1.796;2023-09-19T05:12:33;4.70;;;0.75;;
78410;SDS011;67706;51.074;-1.796;2023-09-19T05:15:01;2.72;;;0.65;;
78410;SDS011;67706;51.074;-1.796;2023-09-19T05:17:28;6.82;;;0.80;;
78410;SDS011;67706;51.074;-1.796;2023-09-19T05:19:55;8.18;;;0.90;;
78410;SDS011;67706;51.074;-1.796;2023-09-19T05:22:21;4.93;;;0.98;;
78410;SDS011;67706;51.074;-1.796;2023-09-19T05:24:49;9.85;;;1.40;;
78410;SDS011;67706;51.074;-1.796;2023-09-19T05:27:18;5.85;;;1.13;;
78410;SDS011;67706;51.074;-1.796;2023-09-19T05:29:47;4.72;;;0.80;;
78410;SDS011;67706;51.074;-1.796;2023-09-19T05:32:14;6.35;;;0.90;;
78410;SDS011;67706;51.074;-1.796;2023-09-19T05:34:41;5.40;;;0.82;;
78410;SDS011;67706;51.074;-1.796;2023-09-19T05:37:07;4.40;;;0.80;;
78410;SDS011;67706;51.074;-1.796;2023-09-19T05:39:34;3.47;;;0.73;;
78410;SDS011;67706;51.074;-1.796;2023-09-19T05:42:02;4.68;;;0.63;;
78410;SDS011;67706;51.074;-1.796;2023-09-19T05:44:29;6.00;;;1.10;;
78410;SDS011;67706;51.074;-1.796;2023-09-19T05:46:58;7.03;;;1.58;;
78410;SDS011;67706;51.074;-1.796;2023-09-19T05:49:25;6.40;;;0.85;;
78410;SDS011;67706;51.074;-1.796;2023-09-19T05:51:52;4.05;;;0.80;;
78410;SDS011;67706;51.074;-1.796;2023-09-19T05:54:20;7.05;;;1.10;;
78410;SDS011;67706;51.074;-1.796;2023-09-19T05:56:47;7.03;;;0.98;;
78410;SDS011;67706;51.074;-1.796;2023-09-19T05:59:17;4.78;;;0.80;;
78410;SDS011;67706;51.074;-1.796;2023-09-19T06:01:44;8.40;;;1.02;;
78410;SDS011;67706;51.074;-1.796;2023-09-19T06:04:12;7.40;;;1.17;;
78410;SDS011;67706;51.074;-1.796;2023-09-19T06:06:39;6.35;;;0.90;;
78410;SDS011;67706;51.074;-1.796;2023-09-19T06:09:06;8.55;;;1.20;;
78410;SDS011;67706;51.074;-1.796;2023-09-19T06:11:33;6.53;;;1.17;;
78410;SDS011;67706;51.074;-1.796;2023-09-19T06:14:00;4.50;;;1.25;;
78410;SDS011;67706;51.074;-1.796;2023-09-19T06:16:27;4.00;;;0.95;;
78410;SDS011;67706;51.074;-1.796;2023-09-19T06:18:54;9.68;;;1.35;;
78410;SDS011;67706;51.074;-1.796;2023-09-19T06:21:22;5.63;;;1.17;;
78410;SDS011;67706;51.074;-1.796;2023-09-19T06:23:49;5.63;;;1.48;;
78410;SDS011;67706;51.074;-1.796;2023-09-19T06:26:15;9.35;;;1.38;;
78410;SDS011;67706;51.074;-1.796;2023-09-19T06:28:42;8.88;;;1.95;;
78410;SDS011;67706;51.074;-1.796;2023-09-19T06:31:09;10.90;;;1.83;;
78410;SDS011;67706;51.074;-1.796;2023-09-19T06:33:36;10.15;;;1.25;;
78410;SDS011;67706;51.074;-1.796;2023-09-19T06:36:04;9.15;;;1.85;;
78410;SDS011;67706;51.074;-1.796;2023-09-19T06:38:32;6.90;;;1.35;;
78410;SDS011;67706;51.074;-1.796;2023-09-19T06:41:01;8.93;;;1.42;;
78410;SDS011;67706;51.074;-1.796;2023-09-19T06:43:29;8.95;;;1.45;;
78410;SDS011;67706;51.074;-1.796;2023-09-19T06:45:59;6.28;;;1.75;;
78410;SDS011;67706;51.074;-1.796;2023-09-19T06:48:25;10.60;;;1.48;;
78410;SDS011;67706;51.074;-1.796;2023-09-19T06:50:54;7.57;;;1.52;;
78410;SDS011;67706;51.074;-1.796;2023-09-19T06:53:21;8.50;;;1.60;;
78410;SDS011;67706;51.074;-1.796;2023-09-19T06:55:50;9.52;;;1.60;;
78410;SDS011;67706;51.074;-1.796;2023-09-19T06:58:16;5.95;;;1.70;;
78410;SDS011;67706;51.074;-1.796;2023-09-19T07:00:44;7.93;;;1.35;;
78410;SDS011;67706;51.074;-1.796;2023-09-19T07:03:13;6.22;;;1.63;;
78410;SDS011;67706;51.074;-1.796;2023-09-19T07:05:41;4.78;;;1.30;;
78410;SDS011;67706;51.074;-1.796;2023-09-19T07:08:08;8.07;;;1.67;;
78410;SDS011;67706;51.074;-1.796;2023-09-19T07:10:37;6.47;;;1.52;;
78410;SDS011;67706;51.074;-1.796;2023-09-19T07:13:06;8.23;;;1.60;;
78410;SDS011;67706;51.074;-1.796;2023-09-19T07:15:34;6.55;;;1.77;;
78410;SDS011;67706;51.074;-1.796;2023-09-19T07:18:04;8.40;;;2.33;;
78410;SDS011;67706;51.074;-1.796;2023-09-19T07:20:31;7.70;;;2.03;;
78410;SDS011;67706;51.074;-1.796;2023-09-19T07:22:58;7.65;;;1.60;;
78410;SDS011;67706;51.074;-1.796;2023-09-19T07:25:25;8.60;;;1.90;;
78410;SDS011;67706;51.074;-1.796;2023-09-19T07:27:52;14.15;;;2.53;;
78410;SDS011;67706;51.074;-1.796;2023-09-19T07:30:22;10.35;;;2.40;;
78410;SDS011;67706;51.074;-1.796;2023-09-19T07:32:50;13.25;;;2.40;;
78410;SDS011;67706;51.074;-1.796;2023-09-19T07:35:17;9.43;;;2.08;;
78410;SDS011;67706;51.074;-1.796;2023-09-19T07:37:45;10.50;;;2.17;;
78410;SDS011;67706;51.074;-1.796;2023-09-19T07:40:14;6.07;;;1.70;;
78410;SDS011;67706;51.074;-1.796;2023-09-19T07:42:41;8.77;;;2.00;;
78410;SDS011;67706;51.074;-1.796;2023-09-19T07:45:09;9.32;;;2.10;;
78410;SDS011;67706;51.074;-1.796;2023-09-19T07:47:43;9.20;;;1.85;;
78410;SDS011;67706;51.074;-1.796;2023-09-19T07:50:10;10.85;;;1.85;;
78410;SDS011;67706;51.074;-1.796;2023-09-19T07:52:37;9.02;;;2.22;;
78410;SDS011;67706;51.074;-1.796;2023-09-19T07:55:04;11.15;;;2.38;;
78410;SDS011;67706;51.074;-1.796;2023-09-19T07:57:34;10.15;;;1.80;;
78410;SDS011;67706;51.074;-1.796;2023-09-19T08:00:01;6.47;;;1.65;;
78410;SDS011;67706;51.074;-1.796;2023-09-19T08:02:29;10.43;;;2.97;;
78410;SDS011;67706;51.074;-1.796;2023-09-19T08:04:57;8.35;;;2.15;;
78410;SDS011;67706;51.074;-1.796;2023-09-19T08:07:25;8.23;;;2.63;;
78410;SDS011;67706;51.074;-1.796;2023-09-19T08:09:53;6.97;;;1.88;;
78410;SDS011;67706;51.074;-1.796;2023-09-19T08:12:20;11.75;;;1.98;;
78410;SDS011;67706;51.074;-1.796;2023-09-19T08:14:49;9.65;;;2.63;;
78410;SDS011;67706;51.074;-1.796;2023-09-19T08:17:16;12.32;;;2.33;;
78410;SDS011;67706;51.074;-1.796;2023-09-19T08:19:45;8.73;;;1.75;;
78410;SDS011;67706;51.074;-1.796;2023-09-19T08:22:13;14.20;;;2.88;;
78410;SDS011;67706;51.074;-1.796;2023-09-19T08:24:42;13.15;;;2.35;;
78410;SDS011;67706;51.074;-1.796;2023-09-19T08:27:09;14.90;;;2.70;;
78410;SDS011;67706;51.074;-1.796;2023-09-19T08:29:37;12.95;;;3.03;;
78410;SDS011;67706;51.074;-1.796;2023-09-19T08:32:04;16.88;;;3.22;;
78410;SDS011;67706;51.074;-1.796;2023-09-19T08:34:31;8.35;;;1.80;;
78410;SDS011;67706;51.074;-1.796;2023-09-19T08:36:59;14.10;;;3.35;;
78410;SDS011;67706;51.074;-1.796;2023-09-19T08:39:27;13.70;;;2.90;;
78410;SDS011;67706;51.074;-1.796;2023-09-19T08:41:59;9.45;;;2.33;;
78410;SDS011;67706;51.074;-1.796;2023-09-19T08:44:26;11.35;;;2.92;;
78410;SDS011;67706;51.074;-1.796;2023-09-19T08:46:55;19.38;;;3.05;;
78410;SDS011;67706;51.074;-1.796;2023-09-19T08:49:35;12.27;;;2.95;;
78410;SDS011;67706;51.074;-1.796;2023-09-19T08:52:10;15.27;;;3.20;;
78410;SDS011;67706;51.074;-1.796;2023-09-19T08:54:47;15.80;;;2.70;;
78410;SDS011;67706;51.074;-1.796;2023-09-19T08:57:17;10.63;;;2.67;;
78410;SDS011;67706;51.074;-1.796;2023-09-19T08:59:47;13.52;;;3.10;;
78410;SDS011;67706;51.074;-1.796;2023-09-19T09:02:15;14.63;;;3.20;;
78410;SDS011;67706;51.074;-1.796;2023-09-19T09:04:44;18.85;;;3.17;;
78410;SDS011;67706;51.074;-1.796;2023-09-19T09:07:12;12.80;;;3.45;;
78410;SDS011;67706;51.074;-1.796;2023-09-19T09:09:39;14.48;;;3.10;;
78410;SDS011;67706;51.074;-1.796;2023-09-19T09:12:09;10.90;;;2.50;;
78410;SDS011;67706;51.074;-1.796;2023-09-19T09:14:38;11.55;;;3.35;;
78410;SDS011;67706;51.074;-1.796;2023-09-19T09:17:05;16.02;;;3.28;;
78410;SDS011;67706;51.074;-1.796;2023-09-19T09:19:32;16.45;;;2.85;;
78410;SDS011;67706;51.074;-1.796;2023-09-19T09:22:06;13.63;;;2.78;;
78410;SDS011;67706;51.074;-1.796;2023-09-19T09:24:33;12.57;;;3.03;;
78410;SDS011;67706;51.074;-1.796;2023-09-19T09:27:03;16.60;;;3.15;;
78410;SDS011;67706;51.074;-1.796;2023-09-19T09:29:45;11.43;;;2.15;;
78410;SDS011;67706;51.074;-1.796;2023-09-19T09:32:21;10.68;;;2.55;;
78410;SDS011;67706;51.074;-1.796;2023-09-19T09:34:50;14.27;;;3.08;;
78410;SDS011;67706;51.074;-1.796;2023-09-19T09:37:18;13.63;;;2.92;;
78410;SDS011;67706;51.074;-1.796;2023-09-19T09:39:49;12.45;;;2.97;;
78410;SDS011;67706;51.074;-1.796;2023-09-19T09:42:31;11.32;;;2.50;;
78410;SDS011;67706;51.074;-1.796;2023-09-19T09:45:14;10.82;;;2.33;;
78410;SDS011;67706;51.074;-1.796;2023-09-19T09:47:43;14.35;;;3.47;;
78410;SDS011;67706;51.074;-1.796;2023-09-19T09:50:24;12.40;;;2.88;;
78410;SDS011;67706;51.074;-1.796;2023-09-19T09:52:54;11.35;;;2.47;;
78410;SDS011;67706;51.074;-1.796;2023-09-19T09:55:28;12.38;;;2.70;;
78410;SDS011;67706;51.074;-1.796;2023-09-19T09:58:04;10.43;;;2.15;;
78410;SDS011;67706;51.074;-1.796;2023-09-19T10:00:53;9.77;;;2.53;;
78410;SDS011;67706;51.074;-1.796;2023-09-19T10:03:30;8.23;;;1.63;;
78410;SDS011;67706;51.074;-1.796;2023-09-19T10:05:58;14.35;;;3.10;;
78410;SDS011;67706;51.074;-1.796;2023-09-19T10:08:34;12.05;;;2.40;;
78410;SDS011;67706;51.074;-1.796;2023-09-19T10:11:01;15.05;;;2.97;;
78410;SDS011;67706;51.074;-1.796;2023-09-19T10:13:41;13.60;;;2.75;;
78410;SDS011;67706;51.074;-1.796;2023-09-19T10:16:14;6.75;;;2.28;;
78410;SDS011;67706;51.074;-1.796;2023-09-19T10:21:15;9.20;;;2.40;;
78410;SDS011;67706;51.074;-1.796;2023-09-19T10:23:47;7.25;;;2.33;;
78410;SDS011;67706;51.074;-1.796;2023-09-19T10:26:17;7.68;;;1.80;;
78410;SDS011;67706;51.074;-1.796;2023-09-19T10:28:45;12.32;;;2.28;;
78410;SDS011;67706;51.074;-1.796;2023-09-19T10:31:19;9.52;;;1.95;;
78410;SDS011;67706;51.074;-1.796;2023-09-19T10:33:49;8.52;;;1.75;;
78410;SDS011;67706;51.074;-1.796;2023-09-19T10:36:16;9.30;;;2.00;;
78410;SDS011;67706;51.074;-1.796;2023-09-19T10:38:44;11.55;;;2.10;;
78410;SDS011;67706;51.074;-1.796;2023-09-19T10:41:14;10.88;;;3.00;;
78410;SDS011;67706;51.074;-1.796;2023-09-19T10:43:42;9.18;;;2.88;;
78410;SDS011;67706;51.074;-1.796;2023-09-19T10:46:11;9.13;;;2.47;;
78410;SDS011;67706;51.074;-1.796;2023-09-19T10:48:40;5.07;;;1.60;;
78410;SDS011;67706;51.074;-1.796;2023-09-19T10:51:09;9.35;;;2.42;;
78410;SDS011;67706;51.074;-1.796;2023-09-19T10:53:42;4.57;;;1.52;;
78410;SDS011;67706;51.074;-1.796;2023-09-19T10:56:13;8.52;;;2.00;;
78410;SDS011;67706;51.074;-1.796;2023-09-19T10:58:45;13.82;;;1.70;;
78410;SDS011;67706;51.074;-1.796;2023-09-19T11:01:12;9.13;;;1.50;;
78410;SDS011;67706;51.074;-1.796;2023-09-19T11:03:41;8.38;;;1.90;;
78410;SDS011;67706;51.074;-1.796;2023-09-19T11:06:10;6.40;;;2.10;;
78410;SDS011;67706;51.074;-1.796;2023-09-19T11:08:51;7.07;;;1.77;;
78410;SDS011;67706;51.074;-1.796;2023-09-19T11:20:24;7.68;;;2.28;;
78410;SDS011;67706;51.074;-1.796;2023-09-19T11:23:20;7.40;;;2.00;;
78410;SDS011;67706;51.074;-1.796;2023-09-19T11:25:52;10.27;;;2.03;;
78410;SDS011;67706;51.074;-1.796;2023-09-19T11:28:29;10.38;;;2.03;;
78410;SDS011;67706;51.074;-1.796;2023-09-19T11:30:56;7.60;;;1.92;;
78410;SDS011;67706;51.074;-1.796;2023-09-19T11:33:24;11.15;;;1.80;;
78410;SDS011;67706;51.074;-1.796;2023-09-19T11:36:01;9.40;;;2.08;;
78410;SDS011;67706;51.074;-1.796;2023-09-19T11:41:36;9.38;;;2.08;;
78410;SDS011;67706;51.074;-1.796;2023-09-19T11:46:58;4.70;;;1.60;;
78410;SDS011;67706;51.074;-1.796;2023-09-19T11:49:28;6.28;;;1.73;;
78410;SDS011;67706;51.074;-1.796;2023-09-19T11:51:59;5.93;;;1.50;;
78410;SDS011;67706;51.074;-1.796;2023-09-19T11:54:30;8.40;;;1.83;;
78410;SDS011;67706;51.074;-1.796;2023-09-19T11:56:58;6.03;;;1.77;;
78410;SDS011;67706;51.074;-1.796;2023-09-19T11:59:27;5.47;;;1.30;;
78410;SDS011;67706;51.074;-1.796;2023-09-19T12:01:55;9.10;;;1.55;;
78410;SDS011;67706;51.074;-1.796;2023-09-19T12:04:33;5.45;;;1.50;;
78410;SDS011;67706;51.074;-1.796;2023-09-19T12:07:04;6.47;;;1.48;;
78410;SDS011;67706;51.074;-1.796;2023-09-19T12:09:36;5.85;;;2.08;;
78410;SDS011;67706;51.074;-1.796;2023-09-19T12:12:05;6.28;;;1.85;;
78410;SDS011;67706;51.074;-1.796;2023-09-19T12:14:32;8.32;;;1.90;;
78410;SDS011;67706;51.074;-1.796;2023-09-19T12:16:58;5.78;;;1.30;;
78410;SDS011;67706;51.074;-1.796;2023-09-19T12:19:49;6.47;;;1.60;;
78410;SDS011;67706;51.074;-1.796;2023-09-19T12:22:18;7.22;;;1.80;;
78410;SDS011;67706;51.074;-1.796;2023-09-19T12:24:45;7.30;;;2.30;;
78410;SDS011;67706;51.074;-1.796;2023-09-19T12:27:13;4.53;;;1.15;;
78410;SDS011;67706;51.074;-1.796;2023-09-19T12:29:43;5.57;;;1.65;;
78410;SDS011;67706;51.074;-1.796;2023-09-19T12:32:11;7.57;;;1.58;;
78410;SDS011;67706;51.074;-1.796;2023-09-19T12:34:40;5.82;;;2.58;;
78410;SDS011;67706;51.074;-1.796;2023-09-19T12:37:08;8.57;;;2.00;;
78410;SDS011;67706;51.074;-1.796;2023-09-19T12:39:47;5.53;;;1.25;;
78410;SDS011;67706;51.074;-1.796;2023-09-19T12:42:16;9.20;;;1.77;;
78410;SDS011;67706;51.074;-1.796;2023-09-19T12:44:45;10.43;;;1.70;;
78410;SDS011;67706;51.074;-1.796;2023-09-19T12:47:14;6.90;;;1.40;;
78410;SDS011;67706;51.074;-1.796;2023-09-19T12:52:44;8.80;;;1.80;;
78410;SDS011;67706;51.074;-1.796;2023-09-19T12:55:23;7.20;;;1.70;;
78410;SDS011;67706;51.074;-1.796;2023-09-19T12:57:55;10.07;;;1.80;;
78410;SDS011;67706;51.074;-1.796;2023-09-19T13:00:30;9.75;;;1.90;;
78410;SDS011;67706;51.074;-1.796;2023-09-19T13:03:16;13.52;;;2.28;;
78410;SDS011;67706;51.074;-1.796;2023-09-19T13:05:50;6.35;;;1.65;;
78410;SDS011;67706;51.074;-1.796;2023-09-19T13:08:21;8.52;;;1.90;;
78410;SDS011;67706;51.074;-1.796;2023-09-19T13:11:05;8.18;;;2.13;;
78410;SDS011;67706;51.074;-1.796;2023-09-19T13:13:36;6.00;;;2.08;;
78410;SDS011;67706;51.074;-1.796;2023-09-19T13:16:03;9.18;;;1.73;;
78410;SDS011;67706;51.074;-1.796;2023-09-19T13:18:41;4.72;;;1.55;;
78410;SDS011;67706;51.074;-1.796;2023-09-19T13:21:10;4.00;;;1.55;;
78410;SDS011;67706;51.074;-1.796;2023-09-19T13:23:40;7.07;;;1.92;;
78410;SDS011;67706;51.074;-1.796;2023-09-19T13:26:09;9.10;;;2.00;;
78410;SDS011;67706;51.074;-1.796;2023-09-19T13:28:37;9.40;;;1.88;;
78410;SDS011;67706;51.074;-1.796;2023-09-19T13:31:04;10.32;;;3.35;;
78410;SDS011;67706;51.074;-1.796;2023-09-19T13:33:32;10.70;;;3.30;;
78410;SDS011;67706;51.074;-1.796;2023-09-19T13:36:00;7.45;;;1.52;;
78410;SDS011;67706;51.074;-1.796;2023-09-19T13:38:27;5.07;;;1.52;;
78410;SDS011;67706;51.074;-1.796;2023-09-19T13:40:54;7.88;;;1.63;;
78410;SDS011;67706;51.074;-1.796;2023-09-19T13:43:22;6.53;;;1.90;;
78410;SDS011;67706;51.074;-1.796;2023-09-19T13:45:50;10.27;;;1.98;;
78410;SDS011;67706;51.074;-1.796;2023-09-19T13:48:17;4.63;;;1.60;;
78410;SDS011;67706;51.074;-1.796;2023-09-19T13:50:47;9.07;;;1.75;;
78410;SDS011;67706;51.074;-1.796;2023-09-19T13:53:14;9.35;;;2.00;;
78410;SDS011;67706;51.074;-1.796;2023-09-19T13:55:42;9.07;;;1.90;;
78410;SDS011;67706;51.074;-1.796;2023-09-19T13:58:09;10.02;;;2.08;;
78410;SDS011;67706;51.074;-1.796;2023-09-19T14:00:38;9.82;;;2.20;;
78410;SDS011;67706;51.074;-1.796;2023-09-19T14:03:05;9.32;;;1.73;;
78410;SDS011;67706;51.074;-1.796;2023-09-19T14:05:32;9.15;;;2.20;;
78410;SDS011;67706;51.074;-1.796;2023-09-19T14:07:58;9.73;;;1.88;;
78410;SDS011;67706;51.074;-1.796;2023-09-19T14:10:26;8.95;;;2.08;;
78410;SDS011;67706;51.074;-1.796;2023-09-19T14:12:55;7.40;;;2.47;;
78410;SDS011;67706;51.074;-1.796;2023-09-19T14:15:22;5.35;;;1.50;;
78410;SDS011;67706;51.074;-1.796;2023-09-19T14:17:55;8.77;;;2.00;;
78410;SDS011;67706;51.074;-1.796;2023-09-19T14:20:24;5.25;;;1.95;;
78410;SDS011;67706;51.074;-1.796;2023-09-19T14:22:51;11.15;;;2.20;;
78410;SDS011;67706;51.074;-1.796;2023-09-19T14:25:18;10.90;;;1.77;;
78410;SDS011;67706;51.074;-1.796;2023-09-19T14:27:46;10.27;;;1.80;;
78410;SDS011;67706;51.074;-1.796;2023-09-19T14:30:13;6.53;;;1.70;;
78410;SDS011;67706;51.074;-1.796;2023-09-19T14:32:40;5.85;;;1.40;;
78410;SDS011;67706;51.074;-1.796;2023-09-19T14:35:08;11.07;;;1.77;;
78410;SDS011;67706;51.074;-1.796;2023-09-19T14:37:35;8.65;;;1.63;;
78410;SDS011;67706;51.074;-1.796;2023-09-19T14:40:04;8.50;;;1.85;;
78410;SDS011;67706;51.074;-1.796;2023-09-19T14:42:34;9.38;;;1.88;;
78410;SDS011;67706;51.074;-1.796;2023-09-19T14:45:03;10.18;;;1.80;;
78410;SDS011;67706;51.074;-1.796;2023-09-19T14:47:31;10.45;;;1.55;;
78410;SDS011;67706;51.074;-1.796;2023-09-19T14:49:59;7.85;;;1.63;;
78410;SDS011;67706;51.074;-1.796;2023-09-19T14:52:27;7.38;;;2.08;;
78410;SDS011;67706;51.074;-1.796;2023-09-19T14:54:54;8.18;;;1.55;;
78410;SDS011;67706;51.074;-1.796;2023-09-19T14:57:21;8.02;;;1.55;;
78410;SDS011;67706;51.074;-1.796;2023-09-19T14:59:49;8.02;;;1.80;;
78410;SDS011;67706;51.074;-1.796;2023-09-19T15:02:16;7.93;;;1.73;;
78410;SDS011;67706;51.074;-1.796;2023-09-19T15:04:43;10.13;;;1.90;;